createdAt,value
2019-02-16T00:01:48.518Z,105.40
2019-02-16T00:04:20.277Z,108.80
2019-02-16T00:06:52.069Z,111.80
2019-02-16T00:09:23.795Z,105.00
2019-02-16T00:11:55.587Z,103.20
2019-02-16T00:14:27.055Z,111.40
2019-02-16T00:16:58.719Z,102.60
2019-02-16T00:19:30.483Z,113.00
2019-02-16T00:22:02.570Z,101.80
2019-02-16T00:24:34.325Z,103.40
2019-02-16T00:27:05.631Z,100.20
2019-02-16T00:29:37.519Z,95.60
2019-02-16T00:32:08.870Z,96.60
2019-02-16T00:34:40.338Z,107.20
2019-02-16T00:37:11.850Z,103.00
2019-02-16T00:39:43.246Z,86.60
2019-02-16T00:42:15.346Z,88.20
2019-02-16T00:44:46.815Z,95.60
2019-02-16T00:47:18.389Z,106.60
2019-02-16T00:49:49.994Z,104.60
2019-02-16T00:52:21.853Z,101.40
2019-02-16T00:54:53.299Z,95.20
2019-02-16T00:57:24.846Z,101.00
2019-02-16T00:59:56.354Z,94.60
2019-02-16T01:02:28.993Z,94.00
2019-02-16T01:05:00.358Z,102.20
2019-02-16T01:07:31.913Z,101.00
2019-02-16T01:10:03.270Z,89.20
2019-02-16T01:12:35.161Z,102.80
2019-02-16T01:15:07.365Z,93.00
2019-02-16T01:17:39.049Z,91.00
2019-02-16T01:20:12.575Z,98.20
2019-02-16T01:22:45.207Z,100.00
2019-02-16T01:25:16.701Z,92.40
2019-02-16T01:27:48.097Z,106.40
2019-02-16T01:30:19.517Z,96.20
2019-02-16T01:32:51.172Z,96.40
2019-02-16T01:35:22.725Z,92.80
2019-02-16T01:37:54.304Z,93.40
2019-02-16T01:40:26.008Z,97.20
2019-02-16T01:42:57.715Z,96.20
2019-02-16T01:45:28.996Z,101.20
2019-02-16T01:48:00.646Z,99.80
2019-02-16T01:50:32.200Z,100.00
2019-02-16T01:53:04.186Z,103.40
2019-02-16T01:55:35.549Z,100.40
2019-02-16T01:58:06.874Z,101.80
2019-02-16T02:00:38.412Z,107.60
2019-02-16T02:03:10.191Z,102.60
2019-02-16T02:05:41.489Z,105.20
2019-02-16T02:08:13.501Z,107.20
2019-02-16T02:10:44.937Z,108.40
2019-02-16T02:13:16.511Z,99.60
2019-02-16T02:15:48.434Z,102.40
2019-02-16T02:18:20.106Z,106.40
2019-02-16T02:20:51.589Z,107.00
2019-02-16T02:23:22.901Z,102.60
2019-02-16T02:25:54.358Z,109.60
2019-02-16T02:28:25.792Z,109.00
2019-02-16T02:30:58.249Z,101.20
2019-02-16T02:33:29.635Z,100.20
2019-02-16T02:36:01.014Z,120.80
2019-02-16T02:38:32.478Z,116.20
2019-02-16T02:41:03.733Z,109.20
2019-02-16T02:43:34.947Z,110.00
2019-02-16T02:46:07.309Z,107.40
2019-02-16T02:48:38.641Z,109.60
2019-02-16T02:51:10.004Z,101.80
2019-02-16T02:53:41.335Z,97.20
2019-02-16T02:56:12.658Z,112.20
2019-02-16T02:58:44.020Z,102.60
2019-02-16T03:01:15.575Z,103.20
2019-02-16T03:03:46.726Z,108.80
2019-02-16T03:06:18.038Z,108.40
2019-02-16T03:08:49.456Z,102.40
2019-02-16T03:11:21.210Z,111.00
2019-02-16T03:13:52.806Z,107.60
2019-02-16T03:16:26.196Z,103.20
2019-02-16T03:18:57.441Z,108.40
2019-02-16T03:21:28.853Z,103.80
2019-02-16T03:24:00.348Z,99.00
2019-02-16T03:27:04.492Z,93.40
2019-02-16T03:29:44.411Z,103.00
2019-02-16T03:32:50.216Z,91.80
2019-02-16T03:36:03.761Z,104.40
2019-02-16T03:38:56.590Z,113.00
2019-02-16T03:41:28.046Z,109.20
2019-02-16T03:44:00.163Z,104.80
2019-02-16T03:46:31.837Z,101.20
2019-02-16T03:49:03.280Z,98.60
2019-02-16T03:51:35.045Z,103.20
2019-02-16T03:54:06.419Z,100.60
2019-02-16T03:56:38.087Z,112.60
2019-02-16T03:59:10.167Z,114.60
2019-02-16T04:01:42.015Z,114.20
2019-02-16T04:04:14.147Z,122.00
2019-02-16T04:06:45.762Z,95.80
2019-02-16T04:09:18.251Z,106.20
2019-02-16T04:11:50.353Z,115.80
2019-02-16T04:14:22.231Z,103.00
2019-02-16T04:16:54.130Z,99.20
2019-02-16T04:19:26.408Z,105.80
2019-02-16T04:21:57.940Z,90.00
2019-02-16T04:24:29.748Z,107.80
2019-02-16T04:27:01.672Z,102.80
2019-02-16T04:29:33.402Z,104.60
2019-02-16T04:32:05.545Z,101.00
2019-02-16T04:34:37.438Z,132.80
2019-02-16T04:37:09.132Z,109.80
2019-02-16T04:39:40.964Z,115.80
2019-02-16T04:42:12.803Z,103.60
2019-02-16T04:44:44.659Z,102.60
2019-02-16T04:47:16.774Z,105.00
2019-02-16T04:49:48.389Z,116.60
2019-02-16T04:52:20.030Z,108.20
2019-02-16T04:54:51.499Z,113.20
2019-02-16T04:57:23.501Z,109.40
2019-02-16T04:59:55.500Z,104.40
2019-02-16T05:02:26.872Z,104.80
2019-02-16T05:04:58.590Z,105.00
2019-02-16T05:07:30.020Z,102.80
2019-02-16T05:10:01.534Z,110.00
2019-02-16T05:12:33.342Z,107.20
2019-02-16T05:15:05.100Z,93.60
2019-02-16T05:17:36.961Z,101.60
2019-02-16T05:20:08.809Z,109.80
2019-02-16T05:22:44.629Z,102.20
2019-02-16T05:25:13.767Z,104.40
2019-02-16T05:27:45.434Z,104.60
2019-02-16T05:30:17.613Z,106.20
2019-02-16T05:32:49.340Z,96.60
2019-02-16T05:35:20.710Z,95.40
2019-02-16T05:37:52.536Z,79.40
2019-02-16T05:40:24.591Z,97.60
2019-02-16T05:42:56.220Z,96.00
2019-02-16T05:45:27.998Z,90.40
2019-02-16T05:47:59.523Z,88.00
2019-02-16T05:50:32.147Z,87.40
2019-02-16T05:53:03.931Z,80.80
2019-02-16T05:55:35.422Z,92.80
2019-02-16T05:58:06.813Z,124.80
2019-02-16T06:00:39.132Z,100.80
2019-02-16T06:03:10.711Z,99.80
2019-02-16T06:05:42.509Z,104.80
2019-02-16T06:08:13.975Z,106.20
2019-02-16T06:10:45.556Z,96.60
2019-02-16T06:13:17.148Z,93.80
2019-02-16T06:15:48.420Z,103.20
2019-02-16T06:18:20.089Z,104.80
2019-02-16T06:20:51.335Z,103.40
2019-02-16T06:23:23.070Z,104.40
2019-02-16T06:25:54.792Z,104.40
2019-02-16T06:28:26.697Z,105.60
2019-02-16T06:30:58.118Z,102.20
2019-02-16T06:33:29.699Z,94.80
2019-02-16T06:36:09.697Z,106.60
2019-02-16T06:38:41.484Z,106.00
2019-02-16T06:41:12.974Z,103.40
2019-02-16T06:43:45.505Z,106.80
2019-02-16T06:46:16.836Z,108.00
2019-02-16T06:48:48.316Z,104.40
2019-02-16T06:51:19.808Z,105.80
2019-02-16T06:53:51.158Z,111.80
2019-02-16T06:56:32.912Z,106.40
2019-02-16T06:59:04.334Z,104.20
2019-02-16T07:01:35.979Z,116.60
2019-02-16T07:04:07.396Z,97.00
2019-02-16T07:06:38.894Z,110.00
2019-02-16T07:09:10.527Z,107.80
2019-02-16T07:11:41.945Z,114.80
2019-02-16T07:14:13.313Z,104.80
2019-02-16T07:16:59.679Z,112.00
2019-02-16T07:19:45.233Z,97.20
2019-02-16T07:22:16.815Z,115.00
2019-02-16T07:24:48.185Z,108.60
2019-02-16T07:27:19.421Z,116.80
2019-02-16T07:29:50.783Z,108.20
2019-02-16T07:32:22.179Z,118.40
2019-02-16T07:34:53.646Z,114.00
2019-02-16T07:37:25.136Z,127.80
2019-02-16T07:39:56.661Z,118.20
2019-02-16T07:42:29.828Z,109.00
2019-02-16T07:45:23.096Z,97.20
2019-02-16T07:48:02.409Z,96.60
2019-02-16T07:50:51.479Z,94.00
2019-02-16T07:53:38.143Z,97.80
2019-02-16T07:56:31.463Z,96.20
2019-02-16T07:59:37.214Z,90.00
2019-02-16T08:02:30.419Z,96.60
2019-02-16T08:05:41.042Z,101.00
2019-02-16T08:08:22.412Z,93.40
2019-02-16T08:11:09.126Z,93.40
2019-02-16T08:14:03.441Z,99.60
2019-02-16T08:16:54.114Z,96.60
2019-02-16T08:19:36.090Z,103.20
2019-02-16T08:22:19.728Z,101.20
2019-02-16T08:25:21.821Z,100.20
2019-02-16T08:28:10.654Z,99.80
2019-02-16T08:31:03.714Z,100.20
2019-02-16T08:33:47.014Z,99.40
2019-02-16T08:36:31.449Z,95.80
2019-02-16T08:39:10.633Z,86.00
2019-02-16T08:42:16.799Z,101.00
2019-02-16T08:44:59.512Z,87.60
2019-02-16T08:47:50.094Z,93.60
2019-02-16T08:50:53.371Z,86.60
2019-02-16T08:54:01.699Z,98.00
2019-02-16T08:56:52.014Z,97.40
2019-02-16T08:59:43.411Z,94.00
2019-02-16T09:02:41.711Z,93.40
2019-02-16T09:05:38.544Z,98.20
2019-02-16T09:08:23.960Z,101.20
2019-02-16T09:11:14.219Z,93.00
2019-02-16T09:14:06.047Z,88.60
2019-02-16T09:17:08.525Z,94.80
2019-02-16T09:19:48.577Z,91.20
2019-02-16T09:22:27.906Z,88.40
2019-02-16T09:25:24.034Z,82.40
2019-02-16T09:28:23.571Z,92.00
2019-02-16T09:31:04.630Z,88.80
2019-02-16T09:33:47.372Z,82.00
2019-02-16T09:36:37.006Z,81.80
2019-02-16T09:39:30.266Z,94.20
2019-02-16T09:42:26.531Z,79.80
2019-02-16T09:45:11.210Z,82.20
2019-02-16T09:48:07.301Z,85.20
2019-02-16T09:50:57.902Z,86.60
2019-02-16T09:53:42.659Z,85.40
2019-02-16T09:56:35.483Z,86.80
2019-02-16T09:59:17.185Z,93.40
2019-02-16T10:02:16.188Z,148.60
2019-02-16T10:05:14.365Z,126.40
2019-02-16T10:08:13.753Z,117.00
2019-02-16T10:11:07.257Z,150.40
2019-02-16T10:13:57.744Z,135.40
2019-02-16T10:16:46.271Z,103.40
2019-02-16T10:19:43.023Z,99.40
2019-02-16T10:22:33.734Z,114.20
2019-02-16T10:25:24.020Z,98.20
2019-02-16T10:28:11.690Z,94.20
2019-02-16T10:30:54.357Z,106.80
2019-02-16T10:33:44.750Z,111.80
2019-02-16T10:36:32.682Z,98.40
2019-02-16T10:39:14.171Z,101.80
2019-02-16T10:42:23.226Z,104.80
2019-02-16T10:45:16.147Z,105.40
2019-02-16T10:48:06.686Z,98.20
2019-02-16T10:51:11.997Z,92.20
2019-02-16T10:53:54.629Z,100.60
2019-02-16T10:56:54.507Z,101.00
2019-02-16T10:59:57.199Z,89.60
2019-02-16T11:03:05.629Z,94.00
2019-02-16T11:06:02.263Z,96.40
2019-02-16T11:08:51.425Z,104.60
2019-02-16T11:11:36.224Z,90.00
2019-02-16T11:14:39.074Z,79.60
2019-02-16T11:17:39.707Z,93.40
2019-02-16T11:20:22.330Z,93.80
2019-02-16T11:23:13.847Z,84.40
2019-02-16T11:26:10.488Z,95.20
2019-02-16T11:28:52.900Z,92.40
2019-02-16T11:31:51.887Z,91.00
2019-02-16T11:34:48.050Z,97.00
2019-02-16T11:37:31.561Z,94.40
2019-02-16T11:40:10.884Z,97.40
2019-02-16T11:43:19.711Z,99.40
2019-02-16T11:46:00.573Z,95.20
2019-02-16T11:49:17.412Z,91.80
2019-02-16T11:52:06.366Z,96.80
2019-02-16T11:54:52.972Z,101.80
2019-02-16T11:57:58.713Z,90.80
2019-02-16T12:00:40.309Z,91.00
2019-02-16T12:03:30.076Z,91.20
2019-02-16T12:06:19.392Z,91.00
2019-02-16T12:09:02.159Z,92.40
2019-02-16T12:11:57.478Z,89.40
2019-02-16T12:14:46.542Z,91.60
2019-02-16T12:17:46.147Z,98.60
2019-02-16T12:20:39.669Z,100.60
2019-02-16T12:23:29.802Z,97.40
2019-02-16T12:26:18.785Z,91.80
2019-02-16T12:29:09.213Z,105.40
2019-02-16T12:31:53.592Z,101.80
2019-02-16T12:34:39.087Z,110.00
2019-02-16T12:37:38.896Z,120.80
2019-02-16T12:40:25.701Z,113.20
2019-02-16T12:43:13.447Z,120.20
2019-02-16T12:46:04.032Z,109.40
2019-02-16T12:48:54.248Z,111.40
2019-02-16T12:51:44.633Z,117.80
2019-02-16T12:54:28.983Z,125.80
2019-02-16T12:57:15.432Z,108.20
2019-02-16T12:59:59.628Z,97.20
2019-02-16T13:03:02.113Z,105.80
2019-02-16T13:06:02.634Z,109.60
2019-02-16T13:08:42.393Z,106.60
2019-02-16T13:11:35.322Z,95.60
2019-02-16T13:14:15.994Z,107.40
2019-02-16T13:17:05.253Z,113.60
2019-02-16T13:19:42.243Z,95.80
2019-02-16T13:22:35.304Z,108.20
2019-02-16T13:25:24.519Z,107.00
2019-02-16T13:28:17.101Z,114.00
2019-02-16T13:31:05.554Z,110.40
2019-02-16T13:33:56.769Z,111.00
2019-02-16T13:36:50.564Z,109.20
2019-02-16T13:39:44.004Z,115.60
2019-02-16T13:42:46.485Z,106.20
2019-02-16T13:45:49.179Z,100.40
2019-02-16T13:48:26.115Z,112.80
2019-02-16T13:51:22.187Z,105.40
2019-02-16T13:54:24.867Z,108.20
2019-02-16T13:57:18.648Z,112.20
2019-02-16T14:00:14.959Z,106.20
2019-02-16T14:02:59.733Z,119.20
2019-02-16T14:05:50.609Z,126.00
2019-02-16T14:08:30.825Z,120.00
2019-02-16T14:11:23.631Z,127.40
2019-02-16T14:14:13.947Z,117.40
2019-02-16T14:16:54.248Z,108.40
2019-02-16T14:19:25.516Z,109.00
2019-02-16T14:21:57.035Z,122.40
2019-02-16T14:24:44.159Z,112.60
2019-02-16T14:27:15.844Z,130.00
2019-02-16T14:29:47.122Z,132.60
2019-02-16T14:32:19.109Z,105.40
2019-02-16T14:34:50.865Z,117.00
2019-02-16T14:37:56.486Z,126.60
2019-02-16T14:40:31.752Z,122.80
2019-02-16T14:43:03.602Z,116.40
2019-02-16T14:45:38.523Z,123.80
2019-02-16T14:48:10.164Z,129.60
2019-02-16T14:50:41.798Z,120.20
2019-02-16T14:53:13.319Z,133.80
2019-02-16T14:55:52.363Z,163.60
2019-02-16T14:58:17.983Z,147.80
2019-02-16T15:00:49.617Z,157.60
2019-02-16T15:03:21.217Z,141.00
2019-02-16T15:05:52.544Z,142.80
2019-02-16T15:08:24.223Z,151.00
2019-02-16T15:10:55.633Z,135.40
2019-02-16T15:13:27.743Z,149.60
2019-02-16T15:15:59.280Z,151.60
2019-02-16T15:18:31.083Z,147.20
2019-02-16T15:21:02.643Z,155.00
2019-02-16T15:23:34.124Z,152.60
2019-02-16T15:26:05.758Z,148.40
2019-02-16T15:28:37.561Z,151.00
2019-02-16T15:31:09.216Z,151.40
2019-02-16T15:33:41.200Z,166.20
2019-02-16T15:36:12.725Z,131.60
2019-02-16T15:38:44.293Z,183.20
2019-02-16T15:41:16.024Z,153.80
2019-02-16T15:43:47.219Z,164.60
2019-02-16T15:46:19.090Z,157.80
2019-02-16T15:48:50.722Z,165.20
2019-02-16T15:51:22.922Z,165.20
2019-02-16T15:53:58.000Z,160.40
2019-02-16T15:56:29.292Z,158.40
2019-02-16T15:59:00.735Z,155.60
2019-02-16T16:01:32.209Z,155.00
2019-02-16T16:04:03.392Z,146.80
2019-02-16T16:06:34.866Z,149.40
2019-02-16T16:09:40.782Z,166.80
2019-02-16T16:12:39.784Z,146.60
2019-02-16T16:15:22.632Z,143.60
2019-02-16T16:18:03.264Z,143.80
2019-02-16T16:20:44.819Z,154.00
2019-02-16T16:23:44.054Z,138.60
2019-02-16T16:26:33.414Z,123.00
2019-02-16T16:29:16.647Z,135.80
2019-02-16T16:31:56.087Z,133.80
2019-02-16T16:34:55.219Z,130.60
2019-02-16T16:37:42.403Z,135.20
2019-02-16T16:40:38.963Z,116.80
2019-02-16T16:43:27.136Z,115.40
2019-02-16T16:46:10.931Z,111.00
2019-02-16T16:49:13.919Z,125.40
2019-02-16T16:52:04.308Z,130.60
2019-02-16T16:54:54.704Z,114.80
2019-02-16T16:57:41.917Z,120.40
2019-02-16T17:00:47.168Z,123.00
2019-02-16T17:03:55.992Z,132.00
2019-02-16T17:06:52.529Z,120.00
2019-02-16T17:09:32.834Z,122.00
2019-02-16T17:12:21.540Z,117.80
2019-02-16T17:15:17.661Z,125.40
2019-02-16T17:18:10.727Z,118.60
2019-02-16T17:20:54.861Z,99.20
2019-02-16T17:23:57.228Z,117.40
2019-02-16T17:26:53.525Z,114.40
2019-02-16T17:29:34.348Z,150.80
2019-02-16T17:32:31.387Z,144.60
2019-02-16T17:35:20.886Z,128.80
2019-02-16T17:38:16.497Z,115.40
2019-02-16T17:41:09.855Z,118.20
2019-02-16T17:44:15.608Z,105.80
2019-02-16T17:47:11.707Z,107.00
2019-02-16T17:50:05.196Z,119.80
2019-02-16T17:52:49.821Z,124.60
2019-02-16T17:55:36.357Z,116.00
2019-02-16T17:58:23.066Z,116.60
2019-02-16T18:01:01.286Z,113.00
2019-02-16T18:03:50.228Z,104.40
2019-02-16T18:06:39.104Z,110.00
2019-02-16T18:09:38.693Z,109.80
2019-02-16T18:12:34.934Z,107.60
2019-02-16T18:15:27.821Z,114.40
2019-02-16T18:18:16.742Z,116.80
2019-02-16T18:21:09.725Z,102.40
2019-02-16T18:23:55.401Z,112.40
2019-02-16T18:26:34.718Z,119.00
2019-02-16T18:29:18.272Z,108.40
2019-02-16T18:32:08.340Z,111.60
2019-02-16T18:35:11.010Z,104.80
2019-02-16T18:38:08.822Z,122.60
2019-02-16T18:41:14.955Z,121.60
2019-02-16T18:44:11.377Z,109.80
2019-02-16T18:47:06.312Z,114.00
2019-02-16T18:50:14.793Z,107.40
2019-02-16T18:53:08.373Z,93.60
2019-02-16T18:56:04.398Z,114.40
2019-02-16T18:59:07.217Z,119.60
2019-02-16T19:01:57.675Z,113.80
2019-02-16T19:04:42.238Z,116.80
2019-02-16T19:07:22.275Z,111.80
2019-02-16T19:10:18.936Z,113.00
2019-02-16T19:13:09.367Z,115.20
2019-02-16T19:15:47.407Z,109.40
2019-02-16T19:18:38.030Z,108.20
2019-02-16T19:21:18.792Z,115.60
2019-02-16T19:24:12.260Z,111.20
2019-02-16T19:27:05.820Z,98.80
2019-02-16T19:29:54.377Z,103.80
2019-02-16T19:32:36.122Z,110.00
2019-02-16T19:35:25.457Z,104.00
2019-02-16T19:38:25.404Z,104.40
2019-02-16T19:41:15.952Z,103.80
2019-02-16T19:44:01.941Z,100.00
2019-02-16T19:46:59.815Z,94.20
2019-02-16T19:49:51.023Z,98.40
2019-02-16T19:52:29.804Z,99.60
2019-02-16T19:55:18.299Z,105.40
2019-02-16T19:58:08.695Z,98.20
2019-02-16T20:00:53.373Z,91.60
2019-02-16T20:03:53.157Z,107.40
2019-02-16T20:06:46.528Z,101.80
2019-02-16T20:09:36.985Z,103.40
2019-02-16T20:12:36.323Z,111.00
2019-02-16T20:15:26.079Z,97.80
2019-02-16T20:18:03.097Z,109.60
2019-02-16T20:20:51.847Z,95.40
2019-02-16T20:23:37.532Z,96.40
2019-02-16T20:26:40.007Z,104.60
2019-02-16T20:29:19.641Z,103.00
2019-02-16T20:32:16.062Z,109.00
2019-02-16T20:35:01.140Z,109.20
2019-02-16T20:37:41.023Z,107.60
2019-02-16T20:40:24.826Z,109.80
2019-02-16T20:43:00.994Z,119.40
2019-02-16T20:45:39.421Z,118.80
2019-02-16T20:48:29.486Z,84.40
2019-02-16T20:51:09.064Z,109.00
2019-02-16T20:54:03.106Z,112.40
2019-02-16T20:56:43.102Z,106.00
2019-02-16T20:59:37.569Z,99.60
2019-02-16T21:02:33.672Z,114.80
2019-02-16T21:05:22.949Z,104.20
2019-02-16T21:08:16.109Z,93.80
2019-02-16T21:10:56.260Z,94.20
2019-02-16T21:13:29.647Z,107.80
2019-02-16T21:16:28.860Z,100.40
2019-02-16T21:19:11.121Z,105.40
2019-02-16T21:22:00.010Z,96.60
2019-02-16T21:24:37.646Z,100.00
2019-02-16T21:27:22.273Z,95.60
2019-02-16T21:30:08.761Z,76.00
2019-02-16T21:33:05.609Z,102.80
2019-02-16T21:35:54.624Z,110.40
2019-02-16T21:38:44.064Z,94.60
2019-02-16T21:41:30.411Z,105.00
2019-02-16T21:44:20.945Z,105.60
2019-02-16T21:47:02.891Z,110.20
2019-02-16T21:49:53.932Z,96.20
2019-02-16T21:52:34.523Z,92.00
2019-02-16T21:55:24.701Z,104.80
2019-02-16T21:58:13.459Z,98.80
2019-02-16T22:01:06.927Z,104.60
2019-02-16T22:04:06.528Z,103.60
2019-02-16T22:06:55.242Z,96.80
2019-02-16T22:09:58.005Z,102.80
2019-02-16T22:13:03.931Z,100.20
2019-02-16T22:15:35.447Z,95.60
2019-02-16T22:18:07.248Z,98.60
2019-02-16T22:20:38.569Z,109.40
2019-02-16T22:23:10.215Z,97.20
2019-02-16T22:25:41.636Z,94.20
2019-02-16T22:28:18.816Z,98.40
2019-02-16T22:30:46.485Z,105.20
2019-02-16T22:33:18.220Z,99.40
2019-02-16T22:35:49.595Z,108.00
2019-02-16T22:38:21.299Z,92.00
2019-02-16T22:40:52.970Z,99.20
2019-02-16T22:43:24.461Z,96.20
2019-02-16T22:45:56.031Z,96.80
2019-02-16T22:48:28.092Z,89.60
2019-02-16T22:50:59.535Z,97.40
2019-02-16T22:53:31.129Z,100.80
2019-02-16T22:56:02.544Z,95.00
2019-02-16T22:58:34.004Z,91.60
2019-02-16T23:01:05.727Z,94.20
2019-02-16T23:03:39.198Z,104.80
2019-02-16T23:06:10.691Z,93.60
2019-02-16T23:08:42.419Z,97.80
2019-02-16T23:11:14.088Z,102.00
2019-02-16T23:13:45.690Z,84.00
2019-02-16T23:16:17.221Z,98.60
2019-02-16T23:18:48.748Z,94.80
2019-02-16T23:21:20.534Z,91.20
2019-02-16T23:23:51.841Z,81.20
2019-02-16T23:26:23.480Z,97.80
2019-02-16T23:28:54.991Z,85.40
2019-02-16T23:31:26.547Z,93.20
2019-02-16T23:33:58.025Z,88.60
2019-02-16T23:36:29.509Z,89.40
2019-02-16T23:39:00.717Z,88.00
2019-02-16T23:41:33.672Z,88.80
2019-02-16T23:44:05.358Z,91.00
2019-02-16T23:46:36.552Z,88.00
2019-02-16T23:49:07.756Z,99.40
2019-02-16T23:51:39.345Z,94.80
2019-02-16T23:54:10.823Z,100.60
2019-02-16T23:56:42.346Z,87.80
2019-02-16T23:59:13.641Z,91.20
